Time;durP1;ratioP1;P1;durP2;ratioP2;P2;SDS_P1;SDS_P2;PMS_P1;PMS_P2;Temp;Humidity;BMP_temperature;BMP_pressure;BME280_temperature;BME280_humidity;BME280_pressure;Samples;Min_cycle;Max_cycle;Signal;HPM_P1;HPM_P2
2022/09/22 00:00:05;;;;;;;13.20;2.97;;;;;;;;;;5049206;28;20116;-67
2022/09/22 00:02:30;;;;;;;7.15;2.42;;;;;;;;;;5050988;28;20275;-66
2022/09/22 00:04:55;;;;;;;12.70;2.90;;;;;;;;;;5051220;28;20047;-66
2022/09/22 00:07:20;;;;;;;7.13;3.27;;;;;;;;;;5046627;28;20271;-68
2022/09/22 00:09:46;;;;;;;8.73;2.37;;;;;;;;;;5052114;28;20268;-66
2022/09/22 00:12:12;;;;;;;11.30;2.78;;;;;;;;;;5032450;28;20306;-66
2022/09/22 00:14:37;;;;;;;7.63;2.22;;;;;;;;;;5052675;28;20086;-66
2022/09/22 00:17:03;;;;;;;7.47;2.70;;;;;;;;;;5048675;28;20564;-67
2022/09/22 00:19:30;;;;;;;10.88;2.15;;;;;;;;;;5034104;28;20021;-67
2022/09/22 00:21:55;;;;;;;13.00;2.65;;;;;;;;;;5032989;28;20492;-67
2022/09/22 00:24:21;;;;;;;9.87;2.40;;;;;;;;;;5051850;28;20030;-68
2022/09/22 00:26:47;;;;;;;9.63;2.50;;;;;;;;;;5049159;28;20264;-69
2022/09/22 00:29:13;;;;;;;9.80;2.38;;;;;;;;;;5051175;28;20048;-66
2022/09/22 00:31:40;;;;;;;10.88;2.72;;;;;;;;;;5048124;28;20017;-71
2022/09/22 00:34:06;;;;;;;7.05;2.03;;;;;;;;;;5052217;28;20128;-68
2022/09/22 00:36:31;;;;;;;7.03;2.30;;;;;;;;;;5049809;28;20031;-67
2022/09/22 00:38:57;;;;;;;7.47;2.33;;;;;;;;;;5050255;28;20103;-66
2022/09/22 00:41:35;;;;;;;3.72;1.90;;;;;;;;;;5047058;28;20017;-70
2022/09/22 00:44:19;;;;;;;9.70;2.38;;;;;;;;;;5049973;28;20053;-66
2022/09/22 00:46:46;;;;;;;7.18;2.15;;;;;;;;;;5049551;28;20104;-68
2022/09/22 00:49:12;;;;;;;6.63;2.17;;;;;;;;;;5050081;28;20023;-67
2022/09/22 00:51:40;;;;;;;15.95;1.90;;;;;;;;;;5045242;28;20025;-66
2022/09/22 00:54:07;;;;;;;9.73;2.20;;;;;;;;;;5049256;28;20025;-66
2022/09/22 00:56:44;;;;;;;6.20;2.10;;;;;;;;;;5046108;28;20060;-68
2022/09/22 00:59:12;;;;;;;4.07;1.95;;;;;;;;;;5048444;28;20024;-67
2022/09/22 01:01:39;;;;;;;4.25;1.98;;;;;;;;;;5047570;28;20370;-67
2022/09/22 01:04:04;;;;;;;12.15;2.75;;;;;;;;;;5051636;28;20370;-67
2022/09/22 01:06:29;;;;;;;5.00;2.25;;;;;;;;;;5048026;28;20023;-67
2022/09/22 01:08:55;;;;;;;7.40;1.85;;;;;;;;;;5046323;28;20358;-66
2022/09/22 01:11:21;;;;;;;8.15;2.35;;;;;;;;;;5049266;28;20482;-66
2022/09/22 01:14:05;;;;;;;8.32;2.65;;;;;;;;;;5048918;28;20029;-70
2022/09/22 01:16:35;;;;;;;10.13;2.13;;;;;;;;;;5045570;28;20021;-68
2022/09/22 01:19:29;;;;;;;4.68;1.92;;;;;;;;;;5049942;28;20037;-66
2022/09/22 01:21:54;;;;;;;6.60;1.80;;;;;;;;;;5033123;28;20068;-69
2022/09/22 01:24:29;;;;;;;8.35;2.08;;;;;;;;;;5051833;28;20059;-66
2022/09/22 01:27:13;;;;;;;12.30;2.42;;;;;;;;;;5043261;28;20275;-66
2022/09/22 01:29:41;;;;;;;12.02;2.17;;;;;;;;;;5047838;28;20025;-68
2022/09/22 01:32:12;;;;;;;8.50;2.45;;;;;;;;;;5048259;28;20029;-66
2022/09/22 01:34:48;;;;;;;7.07;2.05;;;;;;;;;;5049547;28;20103;-68
2022/09/22 01:37:23;;;;;;;3.67;2.10;;;;;;;;;;5047359;28;20128;-66
2022/09/22 01:39:56;;;;;;;19.45;2.60;;;;;;;;;;5048806;28;20115;-67
2022/09/22 01:42:27;;;;;;;10.90;3.05;;;;;;;;;;5031555;28;20025;-69
2022/09/22 01:45:02;;;;;;;7.15;2.53;;;;;;;;;;5049260;28;20052;-67
2022/09/22 01:47:34;;;;;;;7.35;2.20;;;;;;;;;;5025587;28;20112;-67
2022/09/22 01:50:02;;;;;;;6.72;2.28;;;;;;;;;;5046868;28;20021;-67
2022/09/22 01:52:29;;;;;;;3.38;1.88;;;;;;;;;;5031240;28;20404;-67
2022/09/22 01:54:57;;;;;;;6.70;2.45;;;;;;;;;;5048851;28;20120;-65
2022/09/22 01:57:29;;;;;;;8.02;3.03;;;;;;;;;;5047477;28;20381;-65
2022/09/22 01:59:57;;;;;;;10.93;2.40;;;;;;;;;;5039859;28;20078;-66
2022/09/22 02:02:24;;;;;;;7.68;3.88;;;;;;;;;;5048509;28;20096;-67
2022/09/22 02:04:52;;;;;;;11.05;2.95;;;;;;;;;;5041404;28;20424;-65
2022/09/22 02:07:27;;;;;;;5.15;2.50;;;;;;;;;;5049734;28;20048;-66
2022/09/22 02:09:54;;;;;;;6.95;2.42;;;;;;;;;;5031717;28;20447;-66
2022/09/22 02:12:19;;;;;;;6.07;2.13;;;;;;;;;;5048712;28;20013;-65
2022/09/22 02:14:45;;;;;;;8.75;2.22;;;;;;;;;;5048407;28;20631;-68
2022/09/22 02:17:12;;;;;;;12.07;2.58;;;;;;;;;;5050389;28;20052;-67
2022/09/22 02:19:41;;;;;;;5.25;2.55;;;;;;;;;;5047855;28;20489;-65
2022/09/22 02:22:09;;;;;;;10.45;2.67;;;;;;;;;;5047823;28;20039;-66
2022/09/22 02:24:38;;;;;;;5.45;2.17;;;;;;;;;;5047333;28;20021;-65
2022/09/22 02:27:09;;;;;;;4.83;2.00;;;;;;;;;;5047832;28;20056;-66
2022/09/22 02:29:36;;;;;;;5.05;2.55;;;;;;;;;;5048088;28;20029;-65
2022/09/22 02:32:04;;;;;;;7.45;3.30;;;;;;;;;;5048213;28;20382;-65
2022/09/22 02:34:30;;;;;;;7.88;2.75;;;;;;;;;;5047183;28;20548;-66
2022/09/22 02:37:05;;;;;;;6.63;2.53;;;;;;;;;;5046049;28;20469;-66
2022/09/22 02:39:33;;;;;;;3.75;2.08;;;;;;;;;;5042577;28;20021;-69
2022/09/22 02:41:58;;;;;;;5.47;1.88;;;;;;;;;;5046855;28;20431;-67
2022/09/22 02:44:39;;;;;;;4.53;2.30;;;;;;;;;;5029229;28;20028;-65
2022/09/22 02:47:04;;;;;;;;;;;;;;;;;;5048855;28;20268;-66
2022/09/22 02:49:29;;;;;;;5.40;2.13;;;;;;;;;;5046467;28;19978;-66
2022/09/22 02:51:55;;;;;;;6.53;2.30;;;;;;;;;;5043913;28;20491;-65
2022/09/22 02:54:21;;;;;;;5.00;2.17;;;;;;;;;;5045760;28;20017;-68
2022/09/22 02:56:46;;;;;;;11.02;2.47;;;;;;;;;;5048755;28;20497;-69
2022/09/22 02:59:11;;;;;;;4.07;2.30;;;;;;;;;;5044615;28;20025;-65
2022/09/22 03:01:36;;;;;;;9.40;2.00;;;;;;;;;;5045465;28;20263;-66
2022/09/22 03:04:02;;;;;;;8.23;2.72;;;;;;;;;;5044394;28;20025;-66
2022/09/22 03:06:27;;;;;;;13.13;4.05;;;;;;;;;;5048518;28;20029;-65
2022/09/22 03:08:53;;;;;;;8.82;2.70;;;;;;;;;;5038149;28;20021;-67
2022/09/22 03:11:18;;;;;;;4.40;2.33;;;;;;;;;;5047183;28;20067;-65
2022/09/22 03:13:43;;;;;;;3.35;1.98;;;;;;;;;;5047079;28;20025;-67
2022/09/22 03:16:08;;;;;;;11.52;2.70;;;;;;;;;;5047550;28;20291;-67
2022/09/22 03:18:34;;;;;;;8.68;2.22;;;;;;;;;;5045011;28;20622;-67
2022/09/22 03:20:59;;;;;;;12.40;2.05;;;;;;;;;;5045206;28;20478;-66
2022/09/22 03:23:24;;;;;;;5.82;2.13;;;;;;;;;;5043227;28;20032;-66
2022/09/22 03:25:49;;;;;;;3.65;2.00;;;;;;;;;;5046076;28;20036;-66
2022/09/22 03:28:14;;;;;;;4.40;2.23;;;;;;;;;;5048457;28;20078;-66
2022/09/22 03:30:40;;;;;;;3.53;2.13;;;;;;;;;;5047595;28;20286;-66
2022/09/22 03:33:05;;;;;;;5.03;2.85;;;;;;;;;;5045984;28;20310;-68
2022/09/22 03:35:30;;;;;;;8.52;3.17;;;;;;;;;;5047424;28;20025;-66
2022/09/22 03:37:55;;;;;;;4.55;2.10;;;;;;;;;;5046537;28;20071;-67
2022/09/22 03:40:21;;;;;;;5.90;2.37;;;;;;;;;;5046881;28;20035;-66
2022/09/22 03:42:46;;;;;;;5.82;2.35;;;;;;;;;;5048636;28;20275;-67
2022/09/22 03:45:12;;;;;;;9.55;3.75;;;;;;;;;;5047602;28;20029;-67
2022/09/22 03:47:37;;;;;;;6.82;2.22;;;;;;;;;;5048449;28;20037;-66
2022/09/22 03:50:03;;;;;;;5.20;2.20;;;;;;;;;;5047335;28;20021;-67
2022/09/22 03:52:28;;;;;;;8.10;2.20;;;;;;;;;;5046490;28;20100;-66
2022/09/22 03:54:53;;;;;;;9.77;2.60;;;;;;;;;;5045413;28;20108;-66
2022/09/22 03:57:18;;;;;;;7.70;2.17;;;;;;;;;;5028216;28;20132;-67
2022/09/22 03:59:43;;;;;;;5.35;1.85;;;;;;;;;;5046037;28;20296;-66
2022/09/22 04:02:09;;;;;;;3.73;2.20;;;;;;;;;;5028590;28;20374;-66
2022/09/22 04:04:34;;;;;;;10.45;2.50;;;;;;;;;;5046175;28;20279;-66
2022/09/22 04:07:00;;;;;;;10.95;2.63;;;;;;;;;;5046222;28;20028;-66
2022/09/22 04:09:25;;;;;;;14.00;2.40;;;;;;;;;;5039050;28;20595;-67
2022/09/22 04:11:50;;;;;;;2.60;1.75;;;;;;;;;;5044152;28;20021;-66
2022/09/22 04:14:15;;;;;;;7.55;2.08;;;;;;;;;;5043786;28;20762;-66
2022/09/22 04:16:41;;;;;;;4.23;1.70;;;;;;;;;;5048937;28;20061;-66
2022/09/22 04:19:10;;;;;;;6.43;1.95;;;;;;;;;;5048296;28;20689;-66
2022/09/22 04:21:35;;;;;;;5.07;2.20;;;;;;;;;;5073805;22;20094;-68
2022/09/22 04:24:00;;;;;;;6.35;1.88;;;;;;;;;;5040368;28;20033;-68
2022/09/22 04:26:25;;;;;;;6.32;2.03;;;;;;;;;;5033217;28;20013;-68
2022/09/22 04:28:50;;;;;;;5.60;2.00;;;;;;;;;;5031476;28;20033;-68
2022/09/22 04:31:15;;;;;;;9.27;2.40;;;;;;;;;;5036553;28;20302;-68
2022/09/22 04:33:41;;;;;;;13.37;2.10;;;;;;;;;;5033849;28;20325;-68
2022/09/22 04:36:06;;;;;;;7.97;2.28;;;;;;;;;;5036683;28;20278;-68
2022/09/22 04:38:31;;;;;;;7.50;2.75;;;;;;;;;;5032437;28;20071;-68
2022/09/22 04:40:57;;;;;;;6.55;2.10;;;;;;;;;;5031287;28;20414;-68
2022/09/22 04:43:22;;;;;;;4.22;2.40;;;;;;;;;;5030969;28;20009;-66
2022/09/22 04:45:47;;;;;;;5.65;2.45;;;;;;;;;;5032205;28;20107;-66
2022/09/22 04:48:13;;;;;;;6.15;2.63;;;;;;;;;;5032752;28;20018;-66
2022/09/22 04:50:38;;;;;;;5.07;2.28;;;;;;;;;;5031053;28;20017;-66
2022/09/22 04:53:03;;;;;;;9.93;2.90;;;;;;;;;;5041739;28;20036;-66
2022/09/22 04:55:29;;;;;;;6.28;2.80;;;;;;;;;;5030396;28;20296;-66
2022/09/22 04:57:55;;;;;;;8.77;2.67;;;;;;;;;;5030563;28;20033;-66
2022/09/22 05:00:21;;;;;;;8.82;2.88;;;;;;;;;;5029379;28;20306;-68
2022/09/22 05:02:46;;;;;;;7.32;2.38;;;;;;;;;;5030736;28;20053;-68
2022/09/22 05:05:12;;;;;;;5.70;1.77;;;;;;;;;;5031300;28;20075;-68
2022/09/22 05:07:45;;;;;;;5.85;1.83;;;;;;;;;;5030593;28;20113;-69
2022/09/22 05:10:10;;;;;;;8.98;2.38;;;;;;;;;;5031600;28;20074;-68
2022/09/22 05:12:39;;;;;;;6.78;2.35;;;;;;;;;;5032170;28;20029;-68
2022/09/22 05:15:04;;;;;;;10.40;2.85;;;;;;;;;;5031058;28;20037;-68
2022/09/22 05:17:29;;;;;;;4.00;2.63;;;;;;;;;;5030128;28;20152;-68
2022/09/22 05:19:54;;;;;;;5.00;2.17;;;;;;;;;;5028934;28;20041;-68
2022/09/22 05:22:21;;;;;;;7.60;2.40;;;;;;;;;;5032240;28;20029;-68
2022/09/22 05:24:47;;;;;;;7.53;2.70;;;;;;;;;;5029978;28;20375;-68
2022/09/22 05:27:12;;;;;;;8.95;2.35;;;;;;;;;;5029222;28;20096;-68
2022/09/22 05:29:38;;;;;;;7.30;2.33;;;;;;;;;;5030385;28;20033;-69
2022/09/22 05:32:03;;;;;;;13.73;3.80;;;;;;;;;;5030283;28;20458;-68
2022/09/22 05:34:28;;;;;;;15.98;4.82;;;;;;;;;;5030033;28;20546;-68
2022/09/22 05:36:53;;;;;;;11.40;3.37;;;;;;;;;;5041938;28;20068;-69
2022/09/22 05:39:18;;;;;;;6.05;2.53;;;;;;;;;;5024884;28;20418;-68
2022/09/22 05:41:43;;;;;;;5.97;2.90;;;;;;;;;;5027764;28;20511;-68
2022/09/22 05:44:09;;;;;;;7.82;2.20;;;;;;;;;;5031361;28;20283;-68
2022/09/22 05:46:34;;;;;;;4.53;2.30;;;;;;;;;;5028087;28;20075;-68
2022/09/22 05:48:59;;;;;;;8.50;2.63;;;;;;;;;;5025824;28;20282;-68
2022/09/22 05:51:24;;;;;;;7.87;3.07;;;;;;;;;;5029465;28;20298;-68
2022/09/22 05:53:50;;;;;;;6.57;2.63;;;;;;;;;;5027335;28;20811;-68
2022/09/22 05:56:16;;;;;;;14.80;2.75;;;;;;;;;;5030660;28;20850;-68
2022/09/22 05:58:41;;;;;;;7.67;3.10;;;;;;;;;;5027871;28;20112;-68
2022/09/22 06:01:06;;;;;;;7.20;3.03;;;;;;;;;;5030850;28;20371;-66
2022/09/22 06:03:31;;;;;;;5.37;2.60;;;;;;;;;;5036450;28;20275;-66
2022/09/22 06:05:56;;;;;;;6.85;2.47;;;;;;;;;;5028780;28;20272;-66
2022/09/22 06:08:21;;;;;;;10.18;4.18;;;;;;;;;;5029883;28;20037;-66
2022/09/22 06:10:50;;;;;;;7.13;2.55;;;;;;;;;;5030223;28;20018;-66
2022/09/22 06:13:15;;;;;;;5.95;2.28;;;;;;;;;;5029218;28;20028;-66
2022/09/22 06:15:42;;;;;;;9.27;2.60;;;;;;;;;;5034107;28;20025;-66
2022/09/22 06:18:10;;;;;;;9.20;2.70;;;;;;;;;;5031101;28;20371;-66
2022/09/22 06:20:36;;;;;;;10.27;2.20;;;;;;;;;;5026781;28;20087;-66
2022/09/22 06:23:01;;;;;;;10.00;4.05;;;;;;;;;;5028447;28;20465;-66
2022/09/22 06:25:29;;;;;;;8.02;2.45;;;;;;;;;;5026684;28;20478;-66
2022/09/22 06:27:59;;;;;;;9.23;2.38;;;;;;;;;;5035925;28;20021;-66
2022/09/22 06:30:24;;;;;;;8.00;2.57;;;;;;;;;;5029663;28;20013;-66
2022/09/22 06:32:52;;;;;;;4.85;2.45;;;;;;;;;;5031911;28;20048;-66
2022/09/22 06:35:18;;;;;;;10.82;3.13;;;;;;;;;;5030329;28;20057;-66
2022/09/22 06:37:43;;;;;;;15.40;3.63;;;;;;;;;;5029358;28;20052;-66
2022/09/22 06:40:08;;;;;;;11.02;2.53;;;;;;;;;;5030994;28;20747;-66
2022/09/22 06:42:34;;;;;;;3.63;2.10;;;;;;;;;;5043938;28;20361;-66
2022/09/22 06:45:00;;;;;;;8.70;2.20;;;;;;;;;;5037135;28;20032;-66
2022/09/22 06:47:25;;;;;;;7.88;2.03;;;;;;;;;;5037031;28;20021;-66
2022/09/22 06:49:50;;;;;;;7.55;2.30;;;;;;;;;;5028394;28;20474;-66
2022/09/22 06:52:16;;;;;;;13.40;2.92;;;;;;;;;;5034678;28;20025;-66
2022/09/22 06:54:41;;;;;;;7.78;2.80;;;;;;;;;;5032665;28;20170;-66
2022/09/22 06:57:07;;;;;;;7.53;4.07;;;;;;;;;;5026771;28;20087;-66
2022/09/22 06:59:36;;;;;;;6.43;2.85;;;;;;;;;;5029159;28;20515;-66
2022/09/22 07:02:05;;;;;;;6.68;2.33;;;;;;;;;;5033130;28;20035;-67
2022/09/22 07:04:31;;;;;;;5.15;2.30;;;;;;;;;;5033389;28;20024;-67
2022/09/22 07:06:56;;;;;;;6.65;2.63;;;;;;;;;;5027417;28;20029;-67
2022/09/22 07:09:21;;;;;;;18.43;2.73;;;;;;;;;;5026829;28;20036;-67
2022/09/22 07:11:47;;;;;;;3.67;2.08;;;;;;;;;;5026240;28;20053;-67
2022/09/22 07:14:13;;;;;;;7.72;2.08;;;;;;;;;;5024982;28;20672;-66
2022/09/22 07:16:39;;;;;;;6.13;2.30;;;;;;;;;;5025391;28;20021;-67
2022/09/22 07:19:04;;;;;;;11.77;2.40;;;;;;;;;;5026186;28;20318;-67
2022/09/22 07:21:34;;;;;;;7.68;2.20;;;;;;;;;;5029700;28;20060;-67
2022/09/22 07:23:59;;;;;;;6.95;2.22;;;;;;;;;;5027352;28;20072;-67
2022/09/22 07:26:32;;;;;;;4.97;1.67;;;;;;;;;;5027465;28;20021;-67
2022/09/22 07:28:58;;;;;;;6.90;2.25;;;;;;;;;;5032254;28;20329;-67
2022/09/22 07:31:24;;;;;;;9.38;2.55;;;;;;;;;;5029700;28;20049;-67
2022/09/22 07:33:50;;;;;;;6.13;1.88;;;;;;;;;;5029391;28;20508;-67
2022/09/22 07:36:26;;;;;;;5.38;2.50;;;;;;;;;;5011049;28;20021;-67
2022/09/22 07:38:52;;;;;;;10.73;2.20;;;;;;;;;;5028661;28;20085;-67
2022/09/22 07:41:22;;;;;;;4.85;1.65;;;;;;;;;;5028833;28;20029;-67
2022/09/22 07:43:47;;;;;;;;;;;;;;;;;;5027224;28;20080;-67
2022/09/22 07:46:13;;;;;;;6.78;2.00;;;;;;;;;;5032888;28;19909;-68
2022/09/22 07:51:07;;;;;;;3.75;1.80;;;;;;;;;;5031878;28;21196;-68
2022/09/22 07:53:32;;;;;;;3.33;1.52;;;;;;;;;;5034693;28;20101;-68
2022/09/22 07:56:05;;;;;;;2.30;1.40;;;;;;;;;;5032378;28;20096;-68
2022/09/22 07:58:30;;;;;;;5.25;1.83;;;;;;;;;;5032383;28;20029;-68
2022/09/22 08:00:55;;;;;;;7.38;1.70;;;;;;;;;;5033182;28;20112;-68
2022/09/22 08:03:21;;;;;;;6.23;1.50;;;;;;;;;;5029200;28;20088;-68
2022/09/22 08:05:50;;;;;;;4.80;2.00;;;;;;;;;;5031692;28;20333;-68
2022/09/22 08:08:15;;;;;;;5.25;2.08;;;;;;;;;;5029918;28;20366;-67
2022/09/22 08:10:41;;;;;;;5.27;1.53;;;;;;;;;;5033418;28;20013;-68
2022/09/22 08:13:07;;;;;;;6.07;1.87;;;;;;;;;;5034210;28;20271;-68
2022/09/22 08:15:32;;;;;;;7.72;2.10;;;;;;;;;;5031291;28;20267;-68
2022/09/22 08:17:58;;;;;;;4.63;1.30;;;;;;;;;;5033814;28;20332;-68
2022/09/22 08:20:25;;;;;;;8.10;1.53;;;;;;;;;;5036724;28;20061;-67
2022/09/22 08:22:56;;;;;;;8.40;2.13;;;;;;;;;;5043083;28;20041;-68
2022/09/22 08:25:23;;;;;;;2.97;1.20;;;;;;;;;;5033408;28;20487;-68
2022/09/22 08:27:48;;;;;;;5.35;1.40;;;;;;;;;;5030923;28;20398;-68
2022/09/22 08:30:13;;;;;;;3.30;1.60;;;;;;;;;;5036202;28;20024;-68
2022/09/22 08:32:38;;;;;;;10.60;1.70;;;;;;;;;;5050912;28;20236;-67
2022/09/22 08:35:04;;;;;;;6.40;1.70;;;;;;;;;;5052754;28;20279;-67
2022/09/22 08:37:31;;;;;;;3.58;1.38;;;;;;;;;;5053080;28;20264;-68
2022/09/22 08:39:56;;;;;;;4.00;1.70;;;;;;;;;;5052794;28;20024;-67
2022/09/22 08:42:22;;;;;;;3.40;1.40;;;;;;;;;;5042490;28;20032;-67
2022/09/22 08:45:06;;;;;;;8.05;2.85;;;;;;;;;;5032801;28;20306;-67
2022/09/22 08:53:18;;;;;;;2.33;1.20;;;;;;;;;;5031667;28;20169;-67
2022/09/22 08:55:47;;;;;;;2.28;1.05;;;;;;;;;;5030087;28;20159;-67
2022/09/22 08:58:25;;;;;;;10.80;1.23;;;;;;;;;;5031689;28;20440;-67
2022/09/22 09:00:57;;;;;;;4.47;1.30;;;;;;;;;;5029751;28;20089;-67
2022/09/22 09:03:34;;;;;;;3.40;1.38;;;;;;;;;;5032939;28;20108;-67
2022/09/22 09:06:06;;;;;;;2.85;0.93;;;;;;;;;;5031073;28;20060;-67
2022/09/22 09:08:38;;;;;;;3.53;1.15;;;;;;;;;;5029988;28;20112;-67
2022/09/22 09:11:15;;;;;;;2.97;1.00;;;;;;;;;;5032900;28;20017;-68
2022/09/22 09:13:41;;;;;;;4.35;1.23;;;;;;;;;;5034980;28;20106;-67
2022/09/22 09:16:25;;;;;;;2.42;1.00;;;;;;;;;;5038863;28;20060;-67
2022/09/22 09:19:01;;;;;;;4.93;1.35;;;;;;;;;;5030464;28;20025;-67
2022/09/22 09:21:27;;;;;;;4.22;1.45;;;;;;;;;;5025899;28;20021;-67
2022/09/22 09:23:55;;;;;;;2.95;0.80;;;;;;;;;;5029599;28;20025;-68
2022/09/22 09:26:21;;;;;;;3.05;1.10;;;;;;;;;;5028369;28;20059;-67
2022/09/22 09:28:49;;;;;;;4.20;1.23;;;;;;;;;;5033459;28;20021;-67
2022/09/22 09:31:26;;;;;;;3.85;1.08;;;;;;;;;;5031018;28;20025;-67
2022/09/22 09:33:59;;;;;;;3.00;1.33;;;;;;;;;;5030802;28;20442;-67
2022/09/22 09:36:28;;;;;;;2.55;1.00;;;;;;;;;;5029495;28;20025;-67
2022/09/22 09:38:54;;;;;;;8.03;1.70;;;;;;;;;;5029426;28;20517;-67
2022/09/22 09:41:27;;;;;;;7.85;1.40;;;;;;;;;;5030267;28;20745;-67
2022/09/22 09:43:54;;;;;;;2.92;1.00;;;;;;;;;;5026877;28;20374;-67
2022/09/22 09:46:35;;;;;;;1.40;1.00;;;;;;;;;;5028859;28;20017;-67
2022/09/22 09:49:13;;;;;;;3.80;0.90;;;;;;;;;;5030264;28;20020;-67
2022/09/22 09:51:41;;;;;;;2.25;0.70;;;;;;;;;;5030407;28;20466;-67
2022/09/22 09:54:08;;;;;;;2.67;0.93;;;;;;;;;;5027344;28;20108;-67
2022/09/22 09:56:35;;;;;;;2.05;1.13;;;;;;;;;;5031359;28;20021;-67
2022/09/22 10:01:50;;;;;;;2.03;0.82;;;;;;;;;;5030549;28;20091;-67
2022/09/22 10:04:35;;;;;;;8.32;1.17;;;;;;;;;;5034650;28;20548;-67
2022/09/22 10:07:11;;;;;;;1.50;0.85;;;;;;;;;;5029551;28;20362;-67
2022/09/22 10:09:37;;;;;;;5.43;1.00;;;;;;;;;;5030044;28;20017;-67
2022/09/22 10:12:03;;;;;;;2.85;1.13;;;;;;;;;;5029723;28;20033;-68
2022/09/22 10:14:30;;;;;;;1.67;0.77;;;;;;;;;;5029601;28;20041;-67
2022/09/22 10:16:55;;;;;;;2.03;1.25;;;;;;;;;;5027165;28;20378;-67
2022/09/22 10:19:28;;;;;;;1.67;0.80;;;;;;;;;;5030541;28;20033;-67
2022/09/22 10:22:13;;;;;;;2.95;1.25;;;;;;;;;;5043415;22;20045;-85
2022/09/22 10:24:38;;;;;;;6.55;1.15;;;;;;;;;;5031392;28;20033;-86
2022/09/22 10:27:12;;;;;;;5.80;1.05;;;;;;;;;;5029288;28;20126;-85
2022/09/22 10:29:40;;;;;;;6.15;0.95;;;;;;;;;;5048349;28;20032;-84
2022/09/22 10:32:15;;;;;;;1.27;0.88;;;;;;;;;;5048895;28;20021;-85
2022/09/22 10:34:49;;;;;;;2.65;1.17;;;;;;;;;;5048484;28;20443;-86
2022/09/22 10:37:17;;;;;;;5.00;1.30;;;;;;;;;;5042686;28;20050;-86
2022/09/22 10:39:44;;;;;;;4.35;0.95;;;;;;;;;;5038057;28;20021;-85
2022/09/22 10:42:24;;;;;;;1.70;0.90;;;;;;;;;;5046067;28;20032;-85
2022/09/22 10:44:50;;;;;;;2.08;1.13;;;;;;;;;;5038191;28;20021;-85
2022/09/22 10:47:22;;;;;;;2.97;1.02;;;;;;;;;;5027792;28;20021;-85
2022/09/22 10:49:48;;;;;;;4.32;0.90;;;;;;;;;;5049843;28;20021;-85
2022/09/22 10:52:13;;;;;;;1.63;0.93;;;;;;;;;;5025644;28;20116;-88
2022/09/22 10:54:52;;;;;;;1.90;1.10;;;;;;;;;;5058233;28;20480;-87
2022/09/22 10:57:37;;;;;;;2.75;1.00;;;;;;;;;;5045981;28;20021;-89
2022/09/22 11:00:09;;;;;;;3.97;1.08;;;;;;;;;;5017530;28;20048;-87
2022/09/22 11:02:54;;;;;;;4.00;1.25;;;;;;;;;;5028511;28;20044;-87
2022/09/22 11:13:56;;;;;;;1.15;0.95;;;;;;;;;;5048483;28;20515;-87
2022/09/22 11:16:42;;;;;;;3.90;0.88;;;;;;;;;;5030453;28;20450;-87
2022/09/22 11:19:16;;;;;;;2.88;0.93;;;;;;;;;;5030246;28;20151;-87
2022/09/22 11:21:42;;;;;;;1.45;0.88;;;;;;;;;;5035592;28;20032;-87
2022/09/22 11:24:22;;;;;;;1.95;0.70;;;;;;;;;;5033162;28;20155;-86
2022/09/22 11:26:50;;;;;;;2.58;1.13;;;;;;;;;;5026238;28;20082;-87
2022/09/22 11:29:40;;;;;;;1.60;1.00;;;;;;;;;;5033343;28;20021;-87
2022/09/22 11:32:18;;;;;;;3.50;1.00;;;;;;;;;;5032364;28;20021;-86
2022/09/22 11:34:59;;;;;;;1.52;0.70;;;;;;;;;;5035334;28;20587;-86
2022/09/22 11:37:43;;;;;;;5.70;0.90;;;;;;;;;;5028445;28;20488;-86
2022/09/22 11:40:27;;;;;;;3.00;1.20;;;;;;;;;;5059488;28;20040;-87
2022/09/22 11:43:01;;;;;;;2.28;1.27;;;;;;;;;;5045064;28;20036;-86
2022/09/22 11:45:32;;;;;;;1.80;0.82;;;;;;;;;;5040891;28;20035;-87
2022/09/22 11:48:04;;;;;;;2.20;0.60;;;;;;;;;;5027351;28;20021;-86
2022/09/22 11:50:42;;;;;;;3.33;1.20;;;;;;;;;;5033326;28;20024;-87
2022/09/22 11:53:24;;;;;;;1.27;0.80;;;;;;;;;;5027842;28;20039;-86
2022/09/22 11:56:25;;;;;;;0.73;0.45;;;;;;;;;;5031188;28;20029;-86
2022/09/22 11:58:54;;;;;;;3.45;0.85;;;;;;;;;;4971824;28;20037;-87
2022/09/22 12:01:22;;;;;;;3.28;0.55;;;;;;;;;;5038703;28;20025;-85
2022/09/22 12:03:50;;;;;;;1.95;1.00;;;;;;;;;;5047493;28;20035;-86
2022/09/22 12:06:18;;;;;;;4.25;0.68;;;;;;;;;;5050569;28;20013;-86
2022/09/22 12:08:52;;;;;;;1.58;0.65;;;;;;;;;;5031668;28;20024;-87
2022/09/22 12:11:19;;;;;;;0.90;0.68;;;;;;;;;;5026807;28;20171;-87
2022/09/22 12:13:46;;;;;;;0.70;0.55;;;;;;;;;;5054611;28;20017;-84
2022/09/22 12:16:30;;;;;;;0.80;0.60;;;;;;;;;;5030200;28;20021;-85
2022/09/22 12:19:30;;;;;;;2.65;1.08;;;;;;;;;;5032209;28;20675;-87
2022/09/22 12:21:58;;;;;;;2.70;0.90;;;;;;;;;;4973922;28;20213;-86
2022/09/22 12:24:24;;;;;;;1.00;0.70;;;;;;;;;;5036027;28;20028;-86
2022/09/22 12:26:49;;;;;;;2.10;0.85;;;;;;;;;;5048746;28;20017;-87
2022/09/22 12:29:15;;;;;;;1.17;0.40;;;;;;;;;;5054141;28;20013;-88
2022/09/22 12:31:48;;;;;;;1.90;1.02;;;;;;;;;;5031833;28;20074;-86
2022/09/22 12:34:24;;;;;;;1.35;0.75;;;;;;;;;;5028809;28;20029;-87
2022/09/22 12:36:51;;;;;;;2.97;1.00;;;;;;;;;;5028446;28;20021;-87
2022/09/22 12:39:18;;;;;;;1.52;0.50;;;;;;;;;;5046955;28;20025;-86
2022/09/22 12:41:51;;;;;;;1.23;0.75;;;;;;;;;;5039608;28;20024;-87
2022/09/22 12:44:23;;;;;;;0.50;0.30;;;;;;;;;;5031915;28;20099;-87
2022/09/22 12:46:49;;;;;;;2.78;1.13;;;;;;;;;;5047457;28;20044;-84
2022/09/22 12:49:17;;;;;;;2.33;1.17;;;;;;;;;;5032187;28;20469;-87
2022/09/22 12:51:42;;;;;;;6.32;1.00;;;;;;;;;;5048626;28;20691;-84
2022/09/22 12:54:22;;;;;;;0.63;0.50;;;;;;;;;;5048689;28;20025;-84
2022/09/22 12:56:50;;;;;;;;;;;;;;;;;;5048366;28;20366;-83
2022/09/22 12:59:33;;;;;;;5.53;1.02;;;;;;;;;;5048389;28;19908;-84
2022/09/22 13:02:17;;;;;;;2.60;0.93;;;;;;;;;;5042993;28;20025;-84
2022/09/22 13:04:48;;;;;;;5.35;1.20;;;;;;;;;;5028421;28;20046;-85
2022/09/22 13:07:33;;;;;;;5.78;0.80;;;;;;;;;;5029031;28;20025;-84
2022/09/22 13:10:17;;;;;;;3.88;1.10;;;;;;;;;;5028437;28;20018;-82
2022/09/22 13:13:08;;;;;;;3.25;0.90;;;;;;;;;;5048472;28;20452;-86
2022/09/22 13:15:42;;;;;;;2.28;1.23;;;;;;;;;;5043176;28;20021;-87
2022/09/22 13:18:26;;;;;;;2.90;1.25;;;;;;;;;;5053121;28;20021;-87
2022/09/22 13:20:51;;;;;;;1.80;0.80;;;;;;;;;;5052290;28;20366;-87
2022/09/22 13:23:16;;;;;;;3.57;1.10;;;;;;;;;;5048049;28;20095;-87
2022/09/22 13:25:44;;;;;;;2.87;1.03;;;;;;;;;;5029423;28;20285;-86
2022/09/22 13:28:17;;;;;;;1.48;1.20;;;;;;;;;;5029323;28;20009;-87
2022/09/22 13:30:43;;;;;;;6.55;1.00;;;;;;;;;;5047740;28;20146;-86
2022/09/22 13:33:19;;;;;;;2.42;0.50;;;;;;;;;;5039654;28;20022;-86
2022/09/22 13:35:44;;;;;;;4.07;0.93;;;;;;;;;;5030951;28;20035;-86
2022/09/22 13:38:16;;;;;;;1.20;0.80;;;;;;;;;;5031949;28;20393;-86
2022/09/22 13:40:46;;;;;;;6.63;1.00;;;;;;;;;;5070420;28;20063;-86
2022/09/22 13:43:11;;;;;;;;;;;;;;;;;;5053379;28;20029;-85
2022/09/22 13:45:37;;;;;;;2.53;0.60;;;;;;;;;;5055528;28;19916;-86
2022/09/22 13:48:07;;;;;;;0.77;0.52;;;;;;;;;;5050973;28;20025;-85
2022/09/22 13:50:38;;;;;;;2.70;0.75;;;;;;;;;;5034563;28;20013;-86
2022/09/22 13:53:05;;;;;;;2.65;1.20;;;;;;;;;;5047725;28;20135;-85
2022/09/22 13:55:32;;;;;;;1.48;0.73;;;;;;;;;;5049245;28;20017;-85
2022/09/22 13:57:58;;;;;;;0.82;0.68;;;;;;;;;;5052870;28;20028;-85
2022/09/22 14:00:27;;;;;;;9.40;2.05;;;;;;;;;;5053844;28;20020;-86
2022/09/22 14:02:56;;;;;;;1.58;0.57;;;;;;;;;;5036104;28;20481;-87
2022/09/22 14:05:29;;;;;;;11.10;1.40;;;;;;;;;;5030769;28;20013;-86
2022/09/22 14:07:55;;;;;;;1.42;0.70;;;;;;;;;;5046792;28;20472;-86
2022/09/22 14:10:21;;;;;;;2.10;0.90;;;;;;;;;;5047957;28;20025;-87
2022/09/22 14:12:47;;;;;;;9.05;0.90;;;;;;;;;;5034889;28;20168;-86
2022/09/22 14:15:31;;;;;;;2.00;0.68;;;;;;;;;;5050447;28;20116;-87
2022/09/22 14:17:57;;;;;;;1.38;0.40;;;;;;;;;;5048917;28;20029;-85
2022/09/22 14:20:23;;;;;;;0.95;0.52;;;;;;;;;;5039329;28;20431;-88
2022/09/22 14:22:48;;;;;;;1.70;0.60;;;;;;;;;;5060126;28;20086;-88
2022/09/22 14:25:19;;;;;;;1.23;0.68;;;;;;;;;;5052994;28;20024;-88
2022/09/22 14:27:54;;;;;;;3.33;0.80;;;;;;;;;;5051055;28;20024;-88
2022/09/22 14:30:29;;;;;;;1.60;0.60;;;;;;;;;;5025726;28;20021;-87
2022/09/22 14:32:59;;;;;;;2.15;1.08;;;;;;;;;;5046363;28;20027;-87
2022/09/22 14:35:37;;;;;;;5.97;0.75;;;;;;;;;;5033556;28;20020;-86
2022/09/22 14:38:06;;;;;;;1.33;0.60;;;;;;;;;;5027142;28;20035;-86
2022/09/22 14:40:31;;;;;;;1.30;0.93;;;;;;;;;;5048921;28;20108;-88
2022/09/22 14:42:58;;;;;;;15.52;1.20;;;;;;;;;;5028398;28;20413;-88
2022/09/22 14:45:28;;;;;;;3.13;0.70;;;;;;;;;;5030170;28;20036;-88
2022/09/22 14:48:12;;;;;;;0.82;0.57;;;;;;;;;;5052507;28;20052;-89
2022/09/22 14:50:39;;;;;;;1.80;0.75;;;;;;;;;;5038815;28;20017;-88
2022/09/22 14:53:20;;;;;;;1.50;0.50;;;;;;;;;;5038381;28;20081;-87
2022/09/22 14:55:50;;;;;;;1.48;0.65;;;;;;;;;;5047672;28;20481;-88
2022/09/22 14:58:29;;;;;;;1.02;0.52;;;;;;;;;;5048088;28;20392;-88
2022/09/22 15:03:39;;;;;;;2.40;0.73;;;;;;;;;;5048657;28;20124;-88
2022/09/22 15:06:09;;;;;;;1.48;0.50;;;;;;;;;;5030828;28;20039;-87
2022/09/22 15:08:35;;;;;;;1.40;0.65;;;;;;;;;;5059726;28;20024;-87
2022/09/22 15:11:00;;;;;;;0.55;0.30;;;;;;;;;;5045960;28;20025;-88
2022/09/22 15:13:28;;;;;;;1.63;1.10;;;;;;;;;;5028463;28;20055;-88
2022/09/22 15:15:57;;;;;;;2.13;0.60;;;;;;;;;;5048106;28;20389;-87